sensor_id;sensor_type;location;lat;lon;timestamp;P1;durP1;ratioP1;P2;durP2;ratioP2
42840;SDS011;28491;46.898;7.660;2022-12-01T00:00:45;12.07;;;7.07;;
42840;SDS011;28491;46.898;7.660;2022-12-01T00:03:11;13.77;;;8.70;;
42840;SDS011;28491;46.898;7.660;2022-12-01T00:05:36;15.32;;;8.77;;
42840;SDS011;28491;46.898;7.660;2022-12-01T00:08:02;10.90;;;6.97;;
42840;SDS011;28491;46.898;7.660;2022-12-01T00:10:29;11.55;;;7.22;;
42840;SDS011;28491;46.898;7.660;2022-12-01T00:12:56;11.48;;;7.65;;
42840;SDS011;28491;46.898;7.660;2022-12-01T00:15:24;9.60;;;6.90;;
42840;SDS011;28491;46.898;7.660;2022-12-01T00:17:51;9.82;;;6.32;;
42840;SDS011;28491;46.898;7.660;2022-12-01T00:20:17;11.45;;;6.97;;
42840;SDS011;28491;46.898;7.660;2022-12-01T00:22:43;9.45;;;6.55;;
42840;SDS011;28491;46.898;7.660;2022-12-01T00:25:09;9.68;;;7.95;;
42840;SDS011;28491;46.898;7.660;2022-12-01T00:27:36;13.00;;;6.95;;
42840;SDS011;28491;46.898;7.660;2022-12-01T00:30:02;11.00;;;7.20;;
42840;SDS011;28491;46.898;7.660;2022-12-01T00:32:29;10.90;;;7.30;;
42840;SDS011;28491;46.898;7.660;2022-12-01T00:34:55;9.18;;;6.95;;
42840;SDS011;28491;46.898;7.660;2022-12-01T00:37:20;10.80;;;7.07;;
42840;SDS011;28491;46.898;7.660;2022-12-01T00:39:46;10.25;;;7.30;;
42840;SDS011;28491;46.898;7.660;2022-12-01T00:42:11;10.90;;;7.22;;
42840;SDS011;28491;46.898;7.660;2022-12-01T00:44:37;11.68;;;7.65;;
42840;SDS011;28491;46.898;7.660;2022-12-01T00:47:02;10.25;;;6.82;;
42840;SDS011;28491;46.898;7.660;2022-12-01T00:49:28;13.07;;;6.97;;
42840;SDS011;28491;46.898;7.660;2022-12-01T00:51:53;11.10;;;7.40;;
42840;SDS011;28491;46.898;7.660;2022-12-01T00:54:19;12.73;;;8.50;;
42840;SDS011;28491;46.898;7.660;2022-12-01T00:56:44;13.68;;;8.85;;
42840;SDS011;28491;46.898;7.660;2022-12-01T00:59:10;13.02;;;8.20;;
42840;SDS011;28491;46.898;7.660;2022-12-01T01:01:36;12.88;;;8.25;;
42840;SDS011;28491;46.898;7.660;2022-12-01T01:04:01;11.93;;;8.43;;
42840;SDS011;28491;46.898;7.660;2022-12-01T01:06:27;14.18;;;10.07;;
42840;SDS011;28491;46.898;7.660;2022-12-01T01:08:53;14.80;;;8.80;;
42840;SDS011;28491;46.898;7.660;2022-12-01T01:11:19;10.65;;;8.15;;
42840;SDS011;28491;46.898;7.660;2022-12-01T01:13:44;11.43;;;7.57;;
42840;SDS011;28491;46.898;7.660;2022-12-01T01:16:14;13.55;;;9.43;;
42840;SDS011;28491;46.898;7.660;2022-12-01T01:18:42;13.02;;;8.30;;
42840;SDS011;28491;46.898;7.660;2022-12-01T01:21:09;14.85;;;9.38;;
42840;SDS011;28491;46.898;7.660;2022-12-01T01:23:36;11.68;;;9.10;;
42840;SDS011;28491;46.898;7.660;2022-12-01T01:26:06;14.02;;;9.70;;
42840;SDS011;28491;46.898;7.660;2022-12-01T01:28:35;13.60;;;9.77;;
42840;SDS011;28491;46.898;7.660;2022-12-01T01:31:04;14.23;;;9.05;;
42840;SDS011;28491;46.898;7.660;2022-12-01T01:33:31;12.25;;;8.18;;
42840;SDS011;28491;46.898;7.660;2022-12-01T01:35:59;12.73;;;9.43;;
42840;SDS011;28491;46.898;7.660;2022-12-01T01:38:25;15.18;;;8.90;;
42840;SDS011;28491;46.898;7.660;2022-12-01T01:40:51;15.88;;;9.27;;
42840;SDS011;28491;46.898;7.660;2022-12-01T01:43:35;15.13;;;9.38;;
42840;SDS011;28491;46.898;7.660;2022-12-01T01:48:33;16.00;;;10.00;;
42840;SDS011;28491;46.898;7.660;2022-12-01T01:51:00;14.57;;;10.02;;
42840;SDS011;28491;46.898;7.660;2022-12-01T01:53:26;14.23;;;10.82;;
42840;SDS011;28491;46.898;7.660;2022-12-01T01:55:51;14.43;;;9.57;;
42840;SDS011;28491;46.898;7.660;2022-12-01T01:58:17;13.43;;;8.75;;
42840;SDS011;28491;46.898;7.660;2022-12-01T02:00:44;15.40;;;10.32;;
42840;SDS011;28491;46.898;7.660;2022-12-01T02:03:12;14.27;;;9.50;;
42840;SDS011;28491;46.898;7.660;2022-12-01T02:05:40;15.20;;;10.20;;
42840;SDS011;28491;46.898;7.660;2022-12-01T02:08:08;16.48;;;10.75;;
42840;SDS011;28491;46.898;7.660;2022-12-01T02:16:02;16.23;;;11.43;;
42840;SDS011;28491;46.898;7.660;2022-12-01T02:18:51;14.48;;;9.60;;
42840;SDS011;28491;46.898;7.660;2022-12-01T02:21:24;17.45;;;10.07;;
42840;SDS011;28491;46.898;7.660;2022-12-01T02:26:58;17.45;;;9.90;;
42840;SDS011;28491;46.898;7.660;2022-12-01T02:32:37;18.10;;;9.63;;
42840;SDS011;28491;46.898;7.660;2022-12-01T02:37:55;13.07;;;8.02;;
42840;SDS011;28491;46.898;7.660;2022-12-01T02:40:45;13.15;;;8.45;;
42840;SDS011;28491;46.898;7.660;2022-12-01T02:43:21;12.65;;;7.88;;
42840;SDS011;28491;46.898;7.660;2022-12-01T02:48:37;17.85;;;9.02;;
42840;SDS011;28491;46.898;7.660;2022-12-01T02:51:06;16.40;;;11.37;;
42840;SDS011;28491;46.898;7.660;2022-12-01T02:53:36;18.38;;;11.20;;
42840;SDS011;28491;46.898;7.660;2022-12-01T02:56:05;12.50;;;8.63;;
42840;SDS011;28491;46.898;7.660;2022-12-01T02:58:34;17.27;;;10.45;;
42840;SDS011;28491;46.898;7.660;2022-12-01T03:07:05;15.43;;;10.02;;
42840;SDS011;28491;46.898;7.660;2022-12-01T03:09:45;15.52;;;9.15;;
42840;SDS011;28491;46.898;7.660;2022-12-01T03:18:09;18.55;;;11.43;;
42840;SDS011;28491;46.898;7.660;2022-12-01T03:23:40;17.23;;;10.80;;
42840;SDS011;28491;46.898;7.660;2022-12-01T03:26:12;16.70;;;10.07;;
42840;SDS011;28491;46.898;7.660;2022-12-01T03:28:44;18.45;;;11.63;;
42840;SDS011;28491;46.898;7.660;2022-12-01T03:31:15;15.40;;;9.25;;
42840;SDS011;28491;46.898;7.660;2022-12-01T03:34:01;17.42;;;10.35;;
42840;SDS011;28491;46.898;7.660;2022-12-01T03:36:36;16.50;;;10.13;;
42840;SDS011;28491;46.898;7.660;2022-12-01T03:39:08;16.27;;;10.80;;
42840;SDS011;28491;46.898;7.660;2022-12-01T03:41:38;15.15;;;9.55;;
42840;SDS011;28491;46.898;7.660;2022-12-01T03:44:08;16.58;;;10.98;;
42840;SDS011;28491;46.898;7.660;2022-12-01T03:46:44;17.83;;;11.00;;
42840;SDS011;28491;46.898;7.660;2022-12-01T03:49:14;14.05;;;8.65;;
42840;SDS011;28491;46.898;7.660;2022-12-01T03:54:22;13.95;;;9.25;;
42840;SDS011;28491;46.898;7.660;2022-12-01T03:57:10;13.55;;;9.48;;
42840;SDS011;28491;46.898;7.660;2022-12-01T03:59:40;16.27;;;10.27;;
42840;SDS011;28491;46.898;7.660;2022-12-01T04:02:07;16.08;;;9.85;;
42840;SDS011;28491;46.898;7.660;2022-12-01T04:04:33;14.10;;;9.30;;
42840;SDS011;28491;46.898;7.660;2022-12-01T04:06:59;18.25;;;9.70;;
42840;SDS011;28491;46.898;7.660;2022-12-01T04:09:24;17.80;;;10.20;;
42840;SDS011;28491;46.898;7.660;2022-12-01T04:11:50;15.98;;;9.90;;
42840;SDS011;28491;46.898;7.660;2022-12-01T04:14:34;19.05;;;10.98;;
42840;SDS011;28491;46.898;7.660;2022-12-01T04:17:00;16.80;;;9.82;;
42840;SDS011;28491;46.898;7.660;2022-12-01T04:19:25;14.60;;;9.30;;
42840;SDS011;28491;46.898;7.660;2022-12-01T04:21:51;18.38;;;9.88;;
42840;SDS011;28491;46.898;7.660;2022-12-01T04:24:16;18.70;;;10.50;;
42840;SDS011;28491;46.898;7.660;2022-12-01T04:26:43;20.83;;;11.40;;
42840;SDS011;28491;46.898;7.660;2022-12-01T04:29:10;15.23;;;10.00;;
42840;SDS011;28491;46.898;7.660;2022-12-01T04:31:36;20.08;;;13.23;;
42840;SDS011;28491;46.898;7.660;2022-12-01T04:34:01;18.33;;;11.10;;
42840;SDS011;28491;46.898;7.660;2022-12-01T04:36:31;13.95;;;9.05;;
42840;SDS011;28491;46.898;7.660;2022-12-01T04:38:59;14.70;;;9.80;;
42840;SDS011;28491;46.898;7.660;2022-12-01T04:41:25;20.13;;;12.07;;
42840;SDS011;28491;46.898;7.660;2022-12-01T04:43:52;17.15;;;11.38;;
42840;SDS011;28491;46.898;7.660;2022-12-01T04:46:18;17.05;;;10.63;;
42840;SDS011;28491;46.898;7.660;2022-12-01T04:48:44;20.00;;;11.88;;
42840;SDS011;28491;46.898;7.660;2022-12-01T04:51:10;16.08;;;10.27;;
42840;SDS011;28491;46.898;7.660;2022-12-01T04:53:35;18.60;;;12.02;;
42840;SDS011;28491;46.898;7.660;2022-12-01T04:56:01;18.48;;;10.43;;
42840;SDS011;28491;46.898;7.660;2022-12-01T04:58:27;19.50;;;11.55;;
42840;SDS011;28491;46.898;7.660;2022-12-01T05:00:54;21.25;;;12.30;;
42840;SDS011;28491;46.898;7.660;2022-12-01T05:03:25;20.90;;;12.95;;
42840;SDS011;28491;46.898;7.660;2022-12-01T05:05:59;15.85;;;10.75;;
42840;SDS011;28491;46.898;7.660;2022-12-01T05:08:26;17.88;;;11.77;;
42840;SDS011;28491;46.898;7.660;2022-12-01T05:10:53;16.45;;;11.32;;
42840;SDS011;28491;46.898;7.660;2022-12-01T05:13:19;19.50;;;11.27;;
42840;SDS011;28491;46.898;7.660;2022-12-01T05:15:45;20.15;;;10.35;;
42840;SDS011;28491;46.898;7.660;2022-12-01T05:18:10;17.58;;;10.80;;
42840;SDS011;28491;46.898;7.660;2022-12-01T05:20:36;18.55;;;11.93;;
42840;SDS011;28491;46.898;7.660;2022-12-01T05:23:20;19.95;;;11.65;;
42840;SDS011;28491;46.898;7.660;2022-12-01T05:25:46;20.13;;;12.38;;
42840;SDS011;28491;46.898;7.660;2022-12-01T05:28:11;20.67;;;13.02;;
42840;SDS011;28491;46.898;7.660;2022-12-01T05:30:37;21.17;;;11.85;;
42840;SDS011;28491;46.898;7.660;2022-12-01T05:33:02;20.35;;;12.52;;
42840;SDS011;28491;46.898;7.660;2022-12-01T05:35:28;20.20;;;13.55;;
42840;SDS011;28491;46.898;7.660;2022-12-01T05:37:53;22.80;;;12.75;;
42840;SDS011;28491;46.898;7.660;2022-12-01T05:40:19;19.05;;;12.63;;
42840;SDS011;28491;46.898;7.660;2022-12-01T05:42:46;17.70;;;12.18;;
42840;SDS011;28491;46.898;7.660;2022-12-01T05:45:11;20.88;;;12.15;;
42840;SDS011;28491;46.898;7.660;2022-12-01T05:47:37;21.45;;;12.35;;
42840;SDS011;28491;46.898;7.660;2022-12-01T05:50:02;20.73;;;12.00;;
42840;SDS011;28491;46.898;7.660;2022-12-01T05:52:28;18.92;;;12.18;;
42840;SDS011;28491;46.898;7.660;2022-12-01T05:54:53;21.35;;;13.52;;
42840;SDS011;28491;46.898;7.660;2022-12-01T05:57:19;19.58;;;12.13;;
42840;SDS011;28491;46.898;7.660;2022-12-01T05:59:44;19.60;;;12.93;;
42840;SDS011;28491;46.898;7.660;2022-12-01T06:02:10;21.17;;;13.48;;
42840;SDS011;28491;46.898;7.660;2022-12-01T06:04:35;22.00;;;14.18;;
42840;SDS011;28491;46.898;7.660;2022-12-01T06:07:01;26.00;;;13.82;;
42840;SDS011;28491;46.898;7.660;2022-12-01T06:09:26;24.38;;;14.73;;
42840;SDS011;28491;46.898;7.660;2022-12-01T06:11:52;24.05;;;14.77;;
42840;SDS011;28491;46.898;7.660;2022-12-01T06:14:17;25.70;;;13.50;;
42840;SDS011;28491;46.898;7.660;2022-12-01T06:16:43;22.52;;;13.40;;
42840;SDS011;28491;46.898;7.660;2022-12-01T06:19:08;19.95;;;12.73;;
42840;SDS011;28491;46.898;7.660;2022-12-01T06:21:34;21.48;;;14.15;;
42840;SDS011;28491;46.898;7.660;2022-12-01T06:23:59;21.88;;;13.45;;
42840;SDS011;28491;46.898;7.660;2022-12-01T06:26:25;24.65;;;14.57;;
42840;SDS011;28491;46.898;7.660;2022-12-01T06:28:50;21.35;;;12.48;;
42840;SDS011;28491;46.898;7.660;2022-12-01T06:31:16;25.05;;;14.45;;
42840;SDS011;28491;46.898;7.660;2022-12-01T06:33:42;20.35;;;13.23;;
42840;SDS011;28491;46.898;7.660;2022-12-01T06:36:07;23.92;;;14.48;;
42840;SDS011;28491;46.898;7.660;2022-12-01T06:38:34;22.52;;;13.02;;
42840;SDS011;28491;46.898;7.660;2022-12-01T06:41:01;24.13;;;13.73;;
42840;SDS011;28491;46.898;7.660;2022-12-01T06:43:27;23.48;;;15.43;;
42840;SDS011;28491;46.898;7.660;2022-12-01T06:45:53;23.45;;;13.88;;
42840;SDS011;28491;46.898;7.660;2022-12-01T06:48:19;21.98;;;14.10;;
42840;SDS011;28491;46.898;7.660;2022-12-01T06:50:44;27.30;;;14.20;;
42840;SDS011;28491;46.898;7.660;2022-12-01T06:53:10;21.60;;;15.00;;
42840;SDS011;28491;46.898;7.660;2022-12-01T06:55:36;23.52;;;13.75;;
42840;SDS011;28491;46.898;7.660;2022-12-01T06:58:02;22.52;;;13.02;;
42840;SDS011;28491;46.898;7.660;2022-12-01T07:00:28;24.20;;;14.45;;
42840;SDS011;28491;46.898;7.660;2022-12-01T07:02:54;24.77;;;15.57;;
42840;SDS011;28491;46.898;7.660;2022-12-01T07:05:19;24.02;;;13.93;;
42840;SDS011;28491;46.898;7.660;2022-12-01T07:07:45;23.92;;;14.20;;
42840;SDS011;28491;46.898;7.660;2022-12-01T07:10:11;21.40;;;14.35;;
42840;SDS011;28491;46.898;7.660;2022-12-01T07:12:37;25.67;;;16.13;;
42840;SDS011;28491;46.898;7.660;2022-12-01T07:15:04;24.20;;;14.35;;
42840;SDS011;28491;46.898;7.660;2022-12-01T07:17:30;26.20;;;15.50;;
42840;SDS011;28491;46.898;7.660;2022-12-01T07:19:56;28.42;;;15.02;;
42840;SDS011;28491;46.898;7.660;2022-12-01T07:22:22;27.08;;;16.25;;
42840;SDS011;28491;46.898;7.660;2022-12-01T07:24:47;27.45;;;16.33;;
42840;SDS011;28491;46.898;7.660;2022-12-01T07:27:13;25.23;;;15.52;;
42840;SDS011;28491;46.898;7.660;2022-12-01T07:29:38;25.80;;;15.85;;
42840;SDS011;28491;46.898;7.660;2022-12-01T07:32:04;29.50;;;15.68;;
42840;SDS011;28491;46.898;7.660;2022-12-01T07:34:30;29.52;;;17.25;;
42840;SDS011;28491;46.898;7.660;2022-12-01T07:36:55;27.45;;;16.27;;
42840;SDS011;28491;46.898;7.660;2022-12-01T07:39:21;26.38;;;14.85;;
42840;SDS011;28491;46.898;7.660;2022-12-01T07:41:46;28.90;;;16.73;;
42840;SDS011;28491;46.898;7.660;2022-12-01T07:44:12;28.48;;;17.42;;
42840;SDS011;28491;46.898;7.660;2022-12-01T07:46:37;26.40;;;15.93;;
42840;SDS011;28491;46.898;7.660;2022-12-01T07:49:04;28.98;;;17.00;;
42840;SDS011;28491;46.898;7.660;2022-12-01T07:51:31;29.63;;;17.25;;
42840;SDS011;28491;46.898;7.660;2022-12-01T07:54:00;28.92;;;17.10;;
42840;SDS011;28491;46.898;7.660;2022-12-01T07:56:27;32.35;;;16.95;;
42840;SDS011;28491;46.898;7.660;2022-12-01T07:58:53;22.08;;;14.75;;
42840;SDS011;28491;46.898;7.660;2022-12-01T08:01:20;25.55;;;15.23;;
42840;SDS011;28491;46.898;7.660;2022-12-01T08:03:47;24.50;;;14.50;;
42840;SDS011;28491;46.898;7.660;2022-12-01T08:06:15;30.75;;;16.13;;
42840;SDS011;28491;46.898;7.660;2022-12-01T08:08:41;25.48;;;14.73;;
42840;SDS011;28491;46.898;7.660;2022-12-01T08:11:11;27.30;;;15.65;;
42840;SDS011;28491;46.898;7.660;2022-12-01T08:13:39;26.02;;;14.40;;
42840;SDS011;28491;46.898;7.660;2022-12-01T08:16:06;28.20;;;16.35;;
42840;SDS011;28491;46.898;7.660;2022-12-01T08:18:33;26.38;;;16.05;;
42840;SDS011;28491;46.898;7.660;2022-12-01T08:21:00;27.83;;;15.10;;
42840;SDS011;28491;46.898;7.660;2022-12-01T08:23:25;23.30;;;13.85;;
42840;SDS011;28491;46.898;7.660;2022-12-01T08:25:51;24.65;;;14.82;;
42840;SDS011;28491;46.898;7.660;2022-12-01T08:28:17;23.15;;;12.95;;
42840;SDS011;28491;46.898;7.660;2022-12-01T08:30:44;23.63;;;14.25;;
42840;SDS011;28491;46.898;7.660;2022-12-01T08:33:09;26.17;;;15.02;;
42840;SDS011;28491;46.898;7.660;2022-12-01T08:35:35;23.40;;;12.88;;
42840;SDS011;28491;46.898;7.660;2022-12-01T08:38:01;22.58;;;14.18;;
42840;SDS011;28491;46.898;7.660;2022-12-01T08:40:27;26.65;;;15.10;;
42840;SDS011;28491;46.898;7.660;2022-12-01T08:42:53;21.48;;;14.18;;
42840;SDS011;28491;46.898;7.660;2022-12-01T08:45:18;22.40;;;13.70;;
42840;SDS011;28491;46.898;7.660;2022-12-01T08:47:44;21.98;;;12.20;;
42840;SDS011;28491;46.898;7.660;2022-12-01T08:50:10;21.48;;;12.73;;
42840;SDS011;28491;46.898;7.660;2022-12-01T08:52:35;20.98;;;13.00;;
42840;SDS011;28491;46.898;7.660;2022-12-01T08:55:02;23.02;;;13.23;;
42840;SDS011;28491;46.898;7.660;2022-12-01T08:57:28;19.10;;;11.70;;
42840;SDS011;28491;46.898;7.660;2022-12-01T08:59:55;22.65;;;12.10;;
42840;SDS011;28491;46.898;7.660;2022-12-01T09:02:20;18.33;;;12.23;;
42840;SDS011;28491;46.898;7.660;2022-12-01T09:04:46;21.10;;;13.05;;
42840;SDS011;28491;46.898;7.660;2022-12-01T09:07:13;21.88;;;12.50;;
42840;SDS011;28491;46.898;7.660;2022-12-01T09:09:40;18.73;;;11.38;;
42840;SDS011;28491;46.898;7.660;2022-12-01T09:12:06;20.38;;;12.02;;
42840;SDS011;28491;46.898;7.660;2022-12-01T09:14:35;20.52;;;12.45;;
42840;SDS011;28491;46.898;7.660;2022-12-01T09:17:05;21.25;;;13.85;;
42840;SDS011;28491;46.898;7.660;2022-12-01T09:19:31;18.38;;;11.57;;
42840;SDS011;28491;46.898;7.660;2022-12-01T09:21:56;19.25;;;12.75;;
42840;SDS011;28491;46.898;7.660;2022-12-01T09:24:23;19.00;;;12.13;;
42840;SDS011;28491;46.898;7.660;2022-12-01T09:26:48;18.48;;;11.60;;
42840;SDS011;28491;46.898;7.660;2022-12-01T09:29:14;18.83;;;11.02;;
42840;SDS011;28491;46.898;7.660;2022-12-01T09:31:41;20.92;;;11.70;;
42840;SDS011;28491;46.898;7.660;2022-12-01T09:34:09;20.85;;;12.52;;
42840;SDS011;28491;46.898;7.660;2022-12-01T09:36:40;21.38;;;12.68;;
42840;SDS011;28491;46.898;7.660;2022-12-01T09:39:06;21.02;;;12.85;;
42840;SDS011;28491;46.898;7.660;2022-12-01T09:46:48;21.00;;;12.00;;
42840;SDS011;28491;46.898;7.660;2022-12-01T09:51:43;21.88;;;11.48;;
42840;SDS011;28491;46.898;7.660;2022-12-01T09:54:09;22.73;;;13.05;;
42840;SDS011;28491;46.898;7.660;2022-12-01T09:56:44;20.73;;;12.05;;
42840;SDS011;28491;46.898;7.660;2022-12-01T09:59:17;20.38;;;11.57;;
42840;SDS011;28491;46.898;7.660;2022-12-01T10:01:49;21.45;;;13.23;;
42840;SDS011;28491;46.898;7.660;2022-12-01T10:04:22;23.30;;;13.55;;
42840;SDS011;28491;46.898;7.660;2022-12-01T10:06:59;21.92;;;13.60;;
42840;SDS011;28491;46.898;7.660;2022-12-01T10:09:41;21.88;;;13.77;;
42840;SDS011;28491;46.898;7.660;2022-12-01T10:12:29;19.38;;;11.18;;
42840;SDS011;28491;46.898;7.660;2022-12-01T10:14:59;23.52;;;13.80;;
42840;SDS011;28491;46.898;7.660;2022-12-01T10:17:56;25.50;;;13.10;;
42840;SDS011;28491;46.898;7.660;2022-12-01T10:20:32;22.23;;;13.10;;
42840;SDS011;28491;46.898;7.660;2022-12-01T10:25:45;25.15;;;14.45;;
42840;SDS011;28491;46.898;7.660;2022-12-01T10:31:03;19.67;;;12.82;;
42840;SDS011;28491;46.898;7.660;2022-12-01T10:33:44;19.27;;;12.52;;
42840;SDS011;28491;46.898;7.660;2022-12-01T10:36:33;22.42;;;13.40;;
42840;SDS011;28491;46.898;7.660;2022-12-01T10:38:59;22.23;;;13.05;;
42840;SDS011;28491;46.898;7.660;2022-12-01T10:41:28;22.70;;;12.57;;
42840;SDS011;28491;46.898;7.660;2022-12-01T10:43:57;20.77;;;12.70;;
42840;SDS011;28491;46.898;7.660;2022-12-01T10:46:27;23.55;;;13.32;;
42840;SDS011;28491;46.898;7.660;2022-12-01T10:48:54;21.38;;;12.43;;
42840;SDS011;28491;46.898;7.660;2022-12-01T10:51:22;19.60;;;12.75;;
42840;SDS011;28491;46.898;7.660;2022-12-01T10:53:49;19.80;;;12.60;;
42840;SDS011;28491;46.898;7.660;2022-12-01T10:56:21;20.00;;;14.13;;
42840;SDS011;28491;46.898;7.660;2022-12-01T10:58:50;23.73;;;14.65;;
42840;SDS011;28491;46.898;7.660;2022-12-01T11:01:19;19.38;;;12.30;;
42840;SDS011;28491;46.898;7.660;2022-12-01T11:03:50;16.92;;;11.40;;
42840;SDS011;28491;46.898;7.660;2022-12-01T11:06:20;23.08;;;13.40;;
42840;SDS011;28491;46.898;7.660;2022-12-01T11:08:51;17.70;;;11.45;;
42840;SDS011;28491;46.898;7.660;2022-12-01T11:11:24;17.90;;;11.23;;
42840;SDS011;28491;46.898;7.660;2022-12-01T11:13:59;20.10;;;13.13;;
42840;SDS011;28491;46.898;7.660;2022-12-01T11:16:44;17.63;;;10.43;;
42840;SDS011;28491;46.898;7.660;2022-12-01T11:19:17;20.08;;;13.20;;
42840;SDS011;28491;46.898;7.660;2022-12-01T11:21:59;18.85;;;11.25;;
42840;SDS011;28491;46.898;7.660;2022-12-01T11:27:13;22.38;;;14.30;;
42840;SDS011;28491;46.898;7.660;2022-12-01T11:29:45;22.80;;;13.48;;
42840;SDS011;28491;46.898;7.660;2022-12-01T11:32:26;22.67;;;12.38;;
42840;SDS011;28491;46.898;7.660;2022-12-01T11:34:56;20.48;;;11.38;;
42840;SDS011;28491;46.898;7.660;2022-12-01T11:37:24;21.90;;;12.25;;
42840;SDS011;28491;46.898;7.660;2022-12-01T11:40:02;22.45;;;10.90;;
42840;SDS011;28491;46.898;7.660;2022-12-01T11:42:48;18.77;;;11.07;;
42840;SDS011;28491;46.898;7.660;2022-12-01T11:47:57;23.30;;;13.43;;
42840;SDS011;28491;46.898;7.660;2022-12-01T11:50:25;17.63;;;11.55;;
42840;SDS011;28491;46.898;7.660;2022-12-01T11:52:53;20.77;;;11.98;;
42840;SDS011;28491;46.898;7.660;2022-12-01T11:55:19;18.20;;;11.50;;
42840;SDS011;28491;46.898;7.660;2022-12-01T11:57:48;19.33;;;11.57;;
42840;SDS011;28491;46.898;7.660;2022-12-01T12:00:20;17.08;;;10.90;;
42840;SDS011;28491;46.898;7.660;2022-12-01T12:05:38;22.58;;;11.98;;
42840;SDS011;28491;46.898;7.660;2022-12-01T12:26:34;14.98;;;9.60;;
42840;SDS011;28491;46.898;7.660;2022-12-01T12:34:41;14.90;;;8.85;;
42840;SDS011;28491;46.898;7.660;2022-12-01T12:37:17;16.27;;;10.35;;
42840;SDS011;28491;46.898;7.660;2022-12-01T12:40:06;15.93;;;10.10;;
42840;SDS011;28491;46.898;7.660;2022-12-01T12:51:17;18.58;;;10.80;;
42840;SDS011;28491;46.898;7.660;2022-12-01T12:53:58;18.05;;;9.82;;
42840;SDS011;28491;46.898;7.660;2022-12-01T12:56:37;20.88;;;11.63;;
42840;SDS011;28491;46.898;7.660;2022-12-01T12:59:09;30.52;;;14.85;;
42840;SDS011;28491;46.898;7.660;2022-12-01T13:02:11;23.60;;;13.68;;
42840;SDS011;28491;46.898;7.660;2022-12-01T13:07:44;18.77;;;12.23;;
42840;SDS011;28491;46.898;7.660;2022-12-01T13:10:25;15.23;;;10.23;;
42840;SDS011;28491;46.898;7.660;2022-12-01T13:12:59;19.42;;;11.07;;
42840;SDS011;28491;46.898;7.660;2022-12-01T13:15:35;17.02;;;10.48;;
42840;SDS011;28491;46.898;7.660;2022-12-01T13:18:10;14.98;;;10.07;;
42840;SDS011;28491;46.898;7.660;2022-12-01T13:20:40;16.13;;;10.00;;
42840;SDS011;28491;46.898;7.660;2022-12-01T13:23:07;19.58;;;11.90;;
42840;SDS011;28491;46.898;7.660;2022-12-01T13:25:38;18.77;;;10.85;;
42840;SDS011;28491;46.898;7.660;2022-12-01T13:28:11;14.98;;;9.35;;
42840;SDS011;28491;46.898;7.660;2022-12-01T13:30:55;17.35;;;9.45;;
42840;SDS011;28491;46.898;7.660;2022-12-01T13:33:59;17.25;;;10.20;;
42840;SDS011;28491;46.898;7.660;2022-12-01T13:36:27;16.80;;;9.07;;
42840;SDS011;28491;46.898;7.660;2022-12-01T13:38:55;16.48;;;10.00;;
42840;SDS011;28491;46.898;7.660;2022-12-01T13:41:31;17.75;;;9.32;;
42840;SDS011;28491;46.898;7.660;2022-12-01T13:44:26;15.95;;;9.55;;
42840;SDS011;28491;46.898;7.660;2022-12-01T13:47:02;15.65;;;10.63;;
42840;SDS011;28491;46.898;7.660;2022-12-01T13:49:49;17.40;;;9.82;;
42840;SDS011;28491;46.898;7.660;2022-12-01T13:57:45;15.90;;;9.52;;
42840;SDS011;28491;46.898;7.660;2022-12-01T14:00:31;19.80;;;10.50;;
42840;SDS011;28491;46.898;7.660;2022-12-01T14:08:26;17.45;;;10.13;;
42840;SDS011;28491;46.898;7.660;2022-12-01T14:11:01;16.05;;;10.77;;
42840;SDS011;28491;46.898;7.660;2022-12-01T14:13:32;20.60;;;11.48;;
42840;SDS011;28491;46.898;7.660;2022-12-01T14:16:08;19.30;;;11.70;;
42840;SDS011;28491;46.898;7.660;2022-12-01T14:18:35;16.95;;;9.82;;
42840;SDS011;28491;46.898;7.660;2022-12-01T14:21:05;17.67;;;9.95;;
42840;SDS011;28491;46.898;7.660;2022-12-01T14:23:34;16.05;;;8.90;;
42840;SDS011;28491;46.898;7.660;2022-12-01T14:26:21;16.63;;;9.07;;
42840;SDS011;28491;46.898;7.660;2022-12-01T14:34:06;17.10;;;9.98;;
42840;SDS011;28491;46.898;7.660;2022-12-01T14:41:49;14.60;;;8.88;;
42840;SDS011;28491;46.898;7.660;2022-12-01T14:47:11;14.80;;;8.48;;
42840;SDS011;28491;46.898;7.660;2022-12-01T14:49:58;16.15;;;9.27;;
42840;SDS011;28491;46.898;7.660;2022-12-01T14:53:05;17.63;;;8.60;;
42840;SDS011;28491;46.898;7.660;2022-12-01T14:55:40;16.90;;;9.27;;
42840;SDS011;28491;46.898;7.660;2022-12-01T14:58:12;16.00;;;8.85;;
42840;SDS011;28491;46.898;7.660;2022-12-01T15:00:53;16.10;;;9.93;;
42840;SDS011;28491;46.898;7.660;2022-12-01T15:03:26;14.05;;;9.45;;
42840;SDS011;28491;46.898;7.660;2022-12-01T15:05:56;14.52;;;8.00;;
42840;SDS011;28491;46.898;7.660;2022-12-01T15:08:23;17.77;;;9.02;;
42840;SDS011;28491;46.898;7.660;2022-12-01T15:10:52;16.13;;;8.77;;
42840;SDS011;28491;46.898;7.660;2022-12-01T15:13:46;20.30;;;10.10;;
42840;SDS011;28491;46.898;7.660;2022-12-01T15:16:18;14.35;;;9.38;;
42840;SDS011;28491;46.898;7.660;2022-12-01T15:18:45;14.73;;;9.52;;
42840;SDS011;28491;46.898;7.660;2022-12-01T15:24:02;15.93;;;9.32;;
42840;SDS011;28491;46.898;7.660;2022-12-01T15:26:30;17.85;;;9.18;;
42840;SDS011;28491;46.898;7.660;2022-12-01T15:31:43;15.80;;;9.38;;
42840;SDS011;28491;46.898;7.660;2022-12-01T15:34:31;14.32;;;8.80;;
42840;SDS011;28491;46.898;7.660;2022-12-01T15:37:04;15.27;;;9.10;;
42840;SDS011;28491;46.898;7.660;2022-12-01T15:39:57;17.23;;;10.52;;
42840;SDS011;28491;46.898;7.660;2022-12-01T15:42:23;18.02;;;10.23;;
42840;SDS011;28491;46.898;7.660;2022-12-01T15:45:01;18.08;;;9.32;;
42840;SDS011;28491;46.898;7.660;2022-12-01T15:47:47;14.50;;;9.35;;
42840;SDS011;28491;46.898;7.660;2022-12-01T15:53:29;13.57;;;9.05;;
42840;SDS011;28491;46.898;7.660;2022-12-01T15:55:57;19.23;;;11.77;;
42840;SDS011;28491;46.898;7.660;2022-12-01T15:58:27;16.15;;;10.38;;
42840;SDS011;28491;46.898;7.660;2022-12-01T16:01:02;17.48;;;10.52;;
42840;SDS011;28491;46.898;7.660;2022-12-01T16:06:16;17.15;;;11.07;;
42840;SDS011;28491;46.898;7.660;2022-12-01T16:08:51;15.02;;;9.68;;
42840;SDS011;28491;46.898;7.660;2022-12-01T16:11:27;17.98;;;9.48;;
42840;SDS011;28491;46.898;7.660;2022-12-01T16:18:58;19.27;;;10.93;;
42840;SDS011;28491;46.898;7.660;2022-12-01T16:21:26;20.83;;;11.05;;
42840;SDS011;28491;46.898;7.660;2022-12-01T16:24:00;17.77;;;11.02;;
42840;SDS011;28491;46.898;7.660;2022-12-01T16:26:28;15.93;;;9.73;;
42840;SDS011;28491;46.898;7.660;2022-12-01T16:28:54;20.35;;;11.52;;
42840;SDS011;28491;46.898;7.660;2022-12-01T16:31:20;18.27;;;11.45;;
42840;SDS011;28491;46.898;7.660;2022-12-01T16:33:46;23.05;;;12.13;;
42840;SDS011;28491;46.898;7.660;2022-12-01T16:36:11;17.10;;;11.23;;
42840;SDS011;28491;46.898;7.660;2022-12-01T16:38:40;18.33;;;10.43;;
42840;SDS011;28491;46.898;7.660;2022-12-01T16:41:15;17.98;;;11.45;;
42840;SDS011;28491;46.898;7.660;2022-12-01T16:43:42;19.10;;;10.77;;
42840;SDS011;28491;46.898;7.660;2022-12-01T16:46:09;19.85;;;11.90;;
42840;SDS011;28491;46.898;7.660;2022-12-01T16:48:36;19.23;;;11.68;;
42840;SDS011;28491;46.898;7.660;2022-12-01T16:51:03;20.17;;;10.75;;
42840;SDS011;28491;46.898;7.660;2022-12-01T16:53:30;20.90;;;11.98;;
42840;SDS011;28491;46.898;7.660;2022-12-01T16:55:56;18.48;;;12.27;;